Time;durP1;ratioP1;P1;durP2;ratioP2;P2;SDS_P1;SDS_P2;PMS_P1;PMS_P2;Temp;Humidity;BMP_temperature;BMP_pressure;BME280_temperature;BME280_humidity;BME280_pressure;Samples;Min_cycle;Max_cycle;Signal;HPM_P1;HPM_P2
2021/04/06 00:02:08;;;;;;;3.13;1.20;;;2.10;95.20;;;;;;5110184;28;20054;-75
2021/04/06 00:04:41;;;;;;;3.30;1.20;;;2.20;94.50;;;;;;5095121;28;20450;-77
2021/04/06 00:07:13;;;;;;;3.80;1.30;;;2.20;94.30;;;;;;5106742;28;20492;-76
2021/04/06 00:09:43;;;;;;;7.35;1.92;;;2.30;93.90;;;;;;5107732;28;20048;-76
2021/04/06 00:12:11;;;;;;;4.75;1.40;;;2.20;94.10;;;;;;5103092;28;20043;-77
2021/04/06 00:14:39;;;;;;;3.78;1.30;;;2.20;93.60;;;;;;5104403;28;20075;-76
2021/04/06 00:17:09;;;;;;;4.75;1.38;;;2.20;93.60;;;;;;5109270;28;20058;-77
2021/04/06 00:19:40;;;;;;;4.38;1.42;;;2.10;93.60;;;;;;5101204;28;20043;-75
2021/04/06 00:22:08;;;;;;;3.45;1.10;;;2.10;93.40;;;;;;5095876;28;20493;-75
2021/04/06 00:24:39;;;;;;;5.10;1.38;;;2.10;94.00;;;;;;5093185;28;20055;-75
2021/04/06 00:27:14;;;;;;;5.10;1.10;;;2.10;93.50;;;;;;5095904;28;20135;-76
2021/04/06 00:29:46;;;;;;;3.67;1.00;;;2.00;93.70;;;;;;5111704;28;20492;-76
2021/04/06 00:32:14;;;;;;;4.13;1.10;;;2.00;93.70;;;;;;5102464;28;20137;-75
2021/04/06 00:34:41;;;;;;;3.30;1.27;;;2.00;94.10;;;;;;5108200;28;20132;-75
2021/04/06 00:37:13;;;;;;;6.63;1.50;;;2.00;94.00;;;;;;5109130;28;20560;-74
2021/04/06 00:39:40;;;;;;;2.88;1.20;;;2.00;94.20;;;;;;5095158;28;20457;-74
2021/04/06 00:42:12;;;;;;;4.97;1.10;;;1.90;94.20;;;;;;5093538;28;20080;-75
2021/04/06 00:44:43;;;;;;;3.03;1.00;;;2.00;94.00;;;;;;5100283;28;20080;-76
2021/04/06 00:47:12;;;;;;;4.05;1.10;;;2.10;93.90;;;;;;5101802;28;20160;-76
2021/04/06 00:49:42;;;;;;;4.63;1.27;;;2.10;93.50;;;;;;5098057;28;20048;-75
2021/04/06 00:52:11;;;;;;;3.83;1.20;;;2.10;93.40;;;;;;5109081;28;20087;-76
2021/04/06 00:54:38;;;;;;;4.28;1.38;;;2.00;93.90;;;;;;5110850;28;20135;-74
2021/04/06 00:57:07;;;;;;;3.22;1.25;;;2.20;92.90;;;;;;5108899;28;20134;-77
2021/04/06 00:59:34;;;;;;;5.22;1.67;;;2.10;93.00;;;;;;5093174;28;20454;-77
2021/04/06 01:02:05;;;;;;;5.65;1.40;;;2.20;93.00;;;;;;5101869;28;20043;-76
2021/04/06 01:04:36;;;;;;;5.65;1.42;;;2.00;93.20;;;;;;5110655;28;20051;-77
2021/04/06 01:07:08;;;;;;;4.13;1.63;;;2.00;93.60;;;;;;5097363;28;20435;-75
2021/04/06 01:09:44;;;;;;;4.50;1.42;;;1.90;93.50;;;;;;5109965;28;20047;-77
2021/04/06 01:12:13;;;;;;;5.13;1.80;;;1.80;93.90;;;;;;5102269;28;20165;-76
2021/04/06 01:14:42;;;;;;;4.57;1.35;;;1.80;94.00;;;;;;5107470;28;20146;-77
2021/04/06 01:17:12;;;;;;;3.80;1.40;;;1.60;94.50;;;;;;5102638;28;20537;-76
2021/04/06 01:19:39;;;;;;;5.22;1.70;;;1.70;94.30;;;;;;5107255;28;20515;-76
2021/04/06 01:22:09;;;;;;;5.50;1.70;;;1.60;94.50;;;;;;5108967;28;20459;-76
2021/04/06 01:24:38;;;;;;;7.95;2.10;;;1.60;94.50;;;;;;5098536;28;20089;-77
2021/04/06 01:27:10;;;;;;;5.22;1.58;;;1.50;94.70;;;;;;5112969;28;20131;-75
2021/04/06 01:29:37;;;;;;;6.10;1.60;;;1.40;95.20;;;;;;5102217;28;20035;-77
2021/04/06 01:32:04;;;;;;;5.05;1.90;;;1.30;95.60;;;;;;5107010;28;20055;-75
2021/04/06 01:34:31;;;;;;;5.15;1.52;;;1.30;95.70;;;;;;5109825;28;20079;-77
2021/04/06 01:36:58;;;;;;;7.95;2.10;;;1.20;95.90;;;;;;5113238;28;20047;-76
2021/04/06 01:39:28;;;;;;;7.53;1.87;;;1.20;95.80;;;;;;5113099;28;20075;-77
2021/04/06 01:42:00;;;;;;;5.57;1.95;;;1.20;96.10;;;;;;5102327;28;20127;-76
2021/04/06 01:44:26;;;;;;;7.88;2.20;;;1.20;96.20;;;;;;5109220;28;20130;-76
2021/04/06 01:46:54;;;;;;;7.20;2.20;;;1.20;96.00;;;;;;5099831;28;20048;-76
2021/04/06 01:49:21;;;;;;;6.20;1.90;;;1.20;96.30;;;;;;5111875;28;20047;-74
2021/04/06 01:51:49;;;;;;;5.72;1.80;;;1.20;96.10;;;;;;5106867;28;20082;-76
2021/04/06 01:54:18;;;;;;;5.73;2.13;;;1.30;95.90;;;;;;5096177;28;20052;-77
2021/04/06 01:56:52;;;;;;;5.00;1.80;;;1.00;96.00;;;;;;5097191;28;20052;-75
2021/04/06 01:59:23;;;;;;;6.80;1.90;;;1.10;96.20;;;;;;5100743;28;20052;-75
2021/04/06 02:01:53;;;;;;;3.80;1.80;;;1.30;96.00;;;;;;5108345;28;20508;-75
2021/04/06 02:04:21;;;;;;;5.30;2.00;;;1.10;96.00;;;;;;5107575;28;20096;-75
2021/04/06 02:06:49;;;;;;;7.78;2.00;;;1.10;96.30;;;;;;5114956;28;20044;-76
2021/04/06 02:09:18;;;;;;;4.87;2.00;;;1.00;96.00;;;;;;5099580;28;20059;-76
2021/04/06 02:11:46;;;;;;;4.97;2.07;;;0.90;96.40;;;;;;5110027;28;20079;-76
2021/04/06 02:14:14;;;;;;;5.60;2.13;;;1.00;96.30;;;;;;5097806;28;20526;-77
2021/04/06 02:16:44;;;;;;;5.97;2.17;;;1.00;96.10;;;;;;5096828;28;20052;-76
2021/04/06 02:19:25;;;;;;;4.73;1.80;;;0.90;96.10;;;;;;5112289;28;20079;-75
2021/04/06 02:21:54;;;;;;;5.90;1.90;;;0.90;96.00;;;;;;5103386;28;20071;-77
2021/04/06 02:24:38;;;;;;;5.03;1.60;;;0.90;96.00;;;;;;5103784;28;20493;-76
2021/04/06 02:27:11;;;;;;;6.55;1.63;;;0.90;96.20;;;;;;5098014;28;20048;-77
2021/04/06 02:29:41;;;;;;;6.27;2.13;;;0.80;96.00;;;;;;5113905;28;20100;-77
2021/04/06 02:32:14;;;;;;;4.03;1.60;;;0.80;96.00;;;;;;5110942;28;20132;-74
2021/04/06 02:34:45;;;;;;;4.80;1.87;;;0.80;96.10;;;;;;5095564;28;20504;-74
2021/04/06 02:37:18;;;;;;;5.90;1.97;;;0.70;95.80;;;;;;5098784;28;20083;-76
2021/04/06 02:39:45;;;;;;;4.57;1.70;;;0.80;95.70;;;;;;5113592;28;20130;-77
2021/04/06 02:42:25;;;;;;;4.70;1.73;;;0.80;95.60;;;;;;5104802;28;20131;-77
2021/04/06 02:45:08;;;;;;;8.10;2.73;;;0.70;95.60;;;;;;5112535;28;20134;-75
2021/04/06 02:47:38;;;;;;;6.20;1.90;;;0.70;96.00;;;;;;5111531;28;20039;-76
2021/04/06 02:50:09;;;;;;;5.20;1.90;;;0.70;95.80;;;;;;5111059;28;20079;-75
2021/04/06 02:52:36;;;;;;;5.43;1.97;;;0.70;95.90;;;;;;5103311;28;20048;-76
2021/04/06 02:55:05;;;;;;;7.07;3.03;;;0.70;96.10;;;;;;5110763;28;20134;-77
2021/04/06 02:57:34;;;;;;;6.63;2.27;;;0.60;95.90;;;;;;5107810;28;20040;-76
2021/04/06 03:00:01;;;;;;;7.30;2.37;;;0.70;95.80;;;;;;5096105;28;20079;-75
2021/04/06 03:02:28;;;;;;;5.87;1.80;;;0.60;95.80;;;;;;5099309;28;20079;-77
2021/04/06 03:04:55;;;;;;;5.77;2.17;;;0.60;95.80;;;;;;5095312;28;20109;-77
2021/04/06 03:07:26;;;;;;;4.47;2.10;;;0.60;96.10;;;;;;5094968;28;20040;-77
2021/04/06 03:09:58;;;;;;;5.73;2.10;;;0.50;96.10;;;;;;5104680;28;20146;-76
2021/04/06 03:12:32;;;;;;;6.23;2.30;;;0.50;96.20;;;;;;5104969;28;20135;-76
2021/04/06 03:15:05;;;;;;;5.87;2.00;;;0.50;96.10;;;;;;5095808;28;20084;-75
2021/04/06 03:17:45;;;;;;;7.37;2.73;;;0.50;96.10;;;;;;5094922;28;20139;-75
2021/04/06 03:20:14;;;;;;;8.57;2.27;;;0.40;96.10;;;;;;5103623;28;20079;-76
2021/04/06 03:22:42;;;;;;;5.27;2.20;;;0.40;96.40;;;;;;5100370;28;20075;-76
2021/04/06 03:25:12;;;;;;;5.33;2.17;;;0.30;96.20;;;;;;5100584;28;20549;-75
2021/04/06 03:27:43;;;;;;;4.60;2.10;;;0.30;96.30;;;;;;5095094;28;20043;-75
2021/04/06 03:30:11;;;;;;;5.20;2.17;;;0.30;96.10;;;;;;5104339;28;20055;-76
2021/04/06 03:32:38;;;;;;;6.00;2.50;;;0.30;96.30;;;;;;5113662;28;20124;-77
2021/04/06 03:35:08;;;;;;;6.37;2.40;;;0.20;96.60;;;;;;5112596;28;20086;-76
2021/04/06 03:37:37;;;;;;;6.30;2.20;;;0.20;96.60;;;;;;5095452;28;20147;-76
2021/04/06 03:40:06;;;;;;;5.93;2.70;;;0.10;96.40;;;;;;5096433;28;20493;-76
2021/04/06 03:42:33;;;;;;;5.73;2.47;;;0.10;96.60;;;;;;5093798;28;20479;-76
2021/04/06 03:45:07;;;;;;;8.33;2.30;;;0.10;96.60;;;;;;5101523;28;20054;-75
2021/04/06 03:47:56;;;;;;;6.93;2.45;;;0.10;96.80;;;;;;5111564;28;20078;-77
2021/04/06 03:50:38;;;;;;;6.07;2.60;;;0.10;96.80;;;;;;5109613;28;20075;-78
2021/04/06 03:53:09;;;;;;;8.50;2.50;;;0.10;96.40;;;;;;5095459;28;20485;-77
2021/04/06 03:55:37;;;;;;;6.97;2.50;;;0.10;96.50;;;;;;5107500;28;20429;-78
2021/04/06 03:58:10;;;;;;;6.60;2.33;;;0.10;96.50;;;;;;5117079;28;20087;-78
2021/04/06 04:00:37;;;;;;;9.13;2.90;;;0.10;96.80;;;;;;5116935;28;20054;-77
2021/04/06 04:03:04;;;;;;;6.07;2.50;;;0.10;96.30;;;;;;5103268;28;20144;-78
2021/04/06 04:05:31;;;;;;;4.97;2.30;;;0.10;96.40;;;;;;5113257;28;20044;-78
2021/04/06 04:07:59;;;;;;;7.13;2.83;;;0.10;96.70;;;;;;5096805;28;20123;-77
2021/04/06 04:10:27;;;;;;;7.10;2.70;;;0.20;96.70;;;;;;5094972;28;20481;-78
2021/04/06 04:12:53;;;;;;;6.33;2.40;;;0.20;96.80;;;;;;5112658;28;20489;-77
2021/04/06 04:15:21;;;;;;;6.63;2.50;;;0.20;96.50;;;;;;5112023;28;20075;-74
2021/04/06 04:17:49;;;;;;;8.00;2.70;;;0.20;96.70;;;;;;5094590;28;20131;-77
2021/04/06 04:20:19;;;;;;;7.27;2.63;;;0.10;96.70;;;;;;5103747;28;20047;-77
2021/04/06 04:22:47;;;;;;;7.47;2.53;;;0.20;96.80;;;;;;5106542;28;20075;-79
2021/04/06 04:25:16;;;;;;;7.33;2.40;;;0.10;96.70;;;;;;5114181;28;20083;-77
2021/04/06 04:27:45;;;;;;;5.63;2.50;;;0.30;96.70;;;;;;5102020;28;20063;-77
2021/04/06 04:30:14;;;;;;;5.27;2.23;;;0.30;96.70;;;;;;5094810;28;20056;-78
2021/04/06 04:32:42;;;;;;;6.40;2.60;;;0.30;96.50;;;;;;5101002;28;20073;-77
2021/04/06 04:35:13;;;;;;;6.97;2.97;;;0.30;96.50;;;;;;5091157;28;20051;-76
2021/04/06 04:37:40;;;;;;;6.50;2.43;;;0.30;96.40;;;;;;5091237;28;20456;-75
2021/04/06 04:40:08;;;;;;;5.37;2.30;;;0.40;96.40;;;;;;5090819;28;20076;-76
2021/04/06 04:42:35;;;;;;;8.60;2.30;;;0.40;96.40;;;;;;5091105;28;20079;-76
2021/04/06 04:45:03;;;;;;;7.33;2.60;;;0.50;95.90;;;;;;5091868;28;20135;-75
2021/04/06 04:47:31;;;;;;;5.63;2.27;;;0.50;96.00;;;;;;5091529;28;20125;-76
2021/04/06 04:49:58;;;;;;;6.77;2.50;;;0.40;96.10;;;;;;5093231;28;20086;-76
2021/04/06 04:52:24;;;;;;;9.40;2.70;;;0.40;95.90;;;;;;5091735;28;20163;-77
2021/04/06 04:54:51;;;;;;;4.97;2.43;;;0.30;96.30;;;;;;5092234;28;20079;-75
2021/04/06 04:57:17;;;;;;;9.47;2.67;;;0.50;96.00;;;;;;5091539;28;20073;-76
2021/04/06 04:59:44;;;;;;;6.97;3.00;;;0.30;96.30;;;;;;5091392;28;20080;-77
2021/04/06 05:02:12;;;;;;;6.07;2.40;;;0.50;96.10;;;;;;5095108;28;20131;-75
2021/04/06 05:04:38;;;;;;;7.80;2.63;;;0.60;96.30;;;;;;5094759;28;20086;-77
2021/04/06 05:07:05;;;;;;;6.73;2.40;;;0.60;96.30;;;;;;5095466;28;20131;-76
2021/04/06 05:09:32;;;;;;;7.70;2.50;;;0.50;95.90;;;;;;5094940;28;20557;-77
2021/04/06 05:12:00;;;;;;;8.33;2.80;;;0.50;96.20;;;;;;5094652;28;20087;-76
2021/04/06 05:14:28;;;;;;;6.60;2.67;;;0.60;95.80;;;;;;5095617;28;20119;-77
2021/04/06 05:16:55;;;;;;;5.60;2.20;;;0.60;95.80;;;;;;5095330;28;20543;-76
2021/04/06 05:19:22;;;;;;;7.07;2.47;;;0.60;95.80;;;;;;5095955;28;20446;-75
2021/04/06 05:21:49;;;;;;;7.73;2.63;;;0.60;95.80;;;;;;5095472;28;20082;-75
2021/04/06 05:24:16;;;;;;;5.60;2.30;;;0.60;95.60;;;;;;5095049;28;20489;-75
2021/04/06 05:26:43;;;;;;;6.83;2.23;;;0.70;95.60;;;;;;5095512;28;20438;-76
2021/04/06 05:29:11;;;;;;;7.93;2.70;;;0.60;95.70;;;;;;5094395;28;20105;-76
2021/04/06 05:31:39;;;;;;;7.33;2.47;;;0.60;95.40;;;;;;5094958;28;20147;-75
2021/04/06 05:34:05;;;;;;;5.80;2.43;;;0.60;95.40;;;;;;5095810;28;20504;-76
2021/04/06 05:36:33;;;;;;;10.73;2.60;;;0.70;95.50;;;;;;5095297;28;20087;-76
2021/04/06 05:39:00;;;;;;;6.50;2.57;;;0.70;95.50;;;;;;5096315;28;20087;-75
2021/04/06 05:41:27;;;;;;;10.07;2.77;;;0.70;95.00;;;;;;5096698;28;20071;-75
2021/04/06 05:44:00;;;;;;;6.23;2.73;;;0.70;95.30;;;;;;5078624;28;20517;-76
2021/04/06 05:46:30;;;;;;;8.77;2.30;;;0.70;95.30;;;;;;5096460;28;20151;-75
2021/04/06 05:49:01;;;;;;;8.80;2.70;;;0.70;95.40;;;;;;5095268;28;20076;-75
2021/04/06 05:51:29;;;;;;;7.80;3.00;;;0.70;95.30;;;;;;5095081;28;20130;-75
2021/04/06 05:53:57;;;;;;;6.53;2.70;;;0.70;95.30;;;;;;5094526;28;20048;-75
2021/04/06 05:56:24;;;;;;;7.80;2.67;;;0.80;95.40;;;;;;5075744;28;20126;-75
2021/04/06 05:58:58;;;;;;;7.60;2.43;;;0.70;95.40;;;;;;5075948;28;20047;-76
2021/04/06 06:01:27;;;;;;;9.13;2.97;;;0.80;95.50;;;;;;5095878;28;20130;-75
2021/04/06 06:03:54;;;;;;;5.07;2.47;;;0.80;95.10;;;;;;5095212;28;20090;-76
2021/04/06 06:06:22;;;;;;;5.20;2.13;;;0.80;95.10;;;;;;5093879;28;20134;-76
2021/04/06 06:08:52;;;;;;;5.57;2.20;;;0.90;95.50;;;;;;5093628;28;20056;-76
2021/04/06 06:11:20;;;;;;;4.97;2.30;;;0.90;95.10;;;;;;5094262;28;20044;-75
2021/04/06 06:13:47;;;;;;;6.13;2.20;;;1.00;94.70;;;;;;5105484;28;20051;-75
2021/04/06 06:16:20;;;;;;;9.10;2.40;;;0.90;95.30;;;;;;5113603;28;20138;-75
2021/04/06 06:19:03;;;;;;;6.40;2.40;;;0.90;95.20;;;;;;5114431;28;20434;-76
2021/04/06 06:21:45;;;;;;;7.70;2.37;;;1.00;94.80;;;;;;5114960;28;20134;-76
2021/04/06 06:24:24;;;;;;;7.60;2.50;;;1.00;94.80;;;;;;5116341;28;20070;-75
2021/04/06 06:26:52;;;;;;;6.73;2.63;;;0.90;95.10;;;;;;5117939;28;20493;-75
2021/04/06 06:29:22;;;;;;;5.50;2.23;;;1.10;94.70;;;;;;5116146;28;20072;-75
2021/04/06 06:31:53;;;;;;;4.50;2.17;;;1.10;94.80;;;;;;5116659;28;20067;-77
2021/04/06 06:34:35;;;;;;;7.43;2.30;;;1.10;94.30;;;;;;5116283;28;20058;-76
2021/04/06 06:37:12;;;;;;;7.85;2.35;;;1.10;94.50;;;;;;5116672;28;20446;-74
2021/04/06 06:39:43;;;;;;;7.03;2.33;;;1.20;94.10;;;;;;5122150;28;20043;-75
2021/04/06 06:42:15;;;;;;;9.37;3.30;;;1.20;94.40;;;;;;5115606;28;20471;-74
2021/04/06 06:44:42;;;;;;;7.20;2.30;;;1.10;94.40;;;;;;5116024;28;20131;-74
2021/04/06 06:47:12;;;;;;;9.67;2.50;;;1.20;94.60;;;;;;5115756;28;20497;-76
2021/04/06 06:49:42;;;;;;;9.20;2.53;;;1.20;94.60;;;;;;5115803;28;20051;-77
2021/04/06 06:52:34;;;;;;;5.80;2.13;;;1.30;94.20;;;;;;5115272;28;20051;-75
2021/04/06 06:55:16;;;;;;;8.20;2.90;;;1.30;94.20;;;;;;5115996;28;20055;-76
2021/04/06 06:57:44;;;;;;;8.10;2.83;;;1.30;94.10;;;;;;5115517;28;20048;-76
2021/04/06 07:00:18;;;;;;;8.55;2.50;;;1.30;94.30;;;;;;5115675;28;20055;-76
2021/04/06 07:02:45;;;;;;;6.35;2.40;;;1.40;93.80;;;;;;5115985;28;20060;-75
2021/04/06 07:05:19;;;;;;;8.48;2.75;;;1.30;94.10;;;;;;5115102;28;20079;-76
2021/04/06 07:08:02;;;;;;;10.98;2.50;;;1.30;94.30;;;;;;5115173;28;20083;-76
2021/04/06 07:10:32;;;;;;;7.03;2.33;;;1.30;93.90;;;;;;5115096;28;20047;-76
2021/04/06 07:13:09;;;;;;;6.00;2.05;;;1.40;94.30;;;;;;5115103;28;20054;-76
2021/04/06 07:15:41;;;;;;;7.43;2.40;;;1.40;94.10;;;;;;5115047;28;20079;-77
2021/04/06 07:18:14;;;;;;;6.70;2.30;;;1.50;94.10;;;;;;5115113;28;20079;-76
2021/04/06 07:20:46;;;;;;;8.95;2.42;;;1.50;94.40;;;;;;5115071;28;20047;-76
2021/04/06 07:23:18;;;;;;;7.97;2.40;;;1.60;94.00;;;;;;5114188;28;20092;-74
2021/04/06 07:25:46;;;;;;;8.05;2.20;;;1.70;93.90;;;;;;5114988;28;20073;-76
2021/04/06 07:28:17;;;;;;;6.37;2.20;;;1.70;93.30;;;;;;5114860;28;20054;-77
2021/04/06 07:30:45;;;;;;;6.40;2.30;;;1.70;93.80;;;;;;5114967;28;20071;-75
2021/04/06 07:33:14;;;;;;;6.07;2.35;;;1.60;93.70;;;;;;5114906;28;20089;-75
2021/04/06 07:35:42;;;;;;;5.63;2.28;;;1.80;93.60;;;;;;5114684;28;20130;-76
2021/04/06 07:38:09;;;;;;;6.20;1.95;;;1.90;93.10;;;;;;5114779;28;20565;-75
2021/04/06 07:40:36;;;;;;;6.63;2.30;;;1.90;93.50;;;;;;5114709;28;20126;-75
2021/04/06 07:43:06;;;;;;;6.45;2.45;;;1.90;93.40;;;;;;5114647;28;20051;-77
2021/04/06 07:45:44;;;;;;;6.88;2.17;;;2.00;93.20;;;;;;5114714;28;20078;-78
2021/04/06 07:48:13;;;;;;;8.23;2.20;;;2.10;93.10;;;;;;5114642;28;20075;-77
2021/04/06 07:50:43;;;;;;;5.38;2.20;;;2.10;93.10;;;;;;5114329;28;20404;-78
2021/04/06 07:53:25;;;;;;;4.82;2.17;;;2.10;93.00;;;;;;5114370;28;20047;-77
2021/04/06 07:55:54;;;;;;;5.45;1.92;;;2.20;92.80;;;;;;5114594;28;20058;-75
2021/04/06 07:58:48;;;;;;;8.52;2.38;;;2.20;93.20;;;;;;5114381;28;20102;-77
2021/04/06 08:01:25;;;;;;;6.38;2.47;;;2.30;92.90;;;;;;5106510;28;20204;-76
2021/04/06 08:04:06;;;;;;;6.80;2.10;;;2.40;92.80;;;;;;5114145;28;20079;-74
2021/04/06 08:06:45;;;;;;;10.57;2.38;;;2.50;92.50;;;;;;5113946;28;20527;-75
2021/04/06 08:09:45;;;;;;;10.00;2.63;;;2.40;92.30;;;;;;5113952;28;20048;-75
2021/04/06 08:12:15;;;;;;;9.13;2.45;;;2.50;92.40;;;;;;5114014;28;20460;-74
2021/04/06 08:14:45;;;;;;;7.55;2.20;;;2.60;92.40;;;;;;5114166;28;20048;-76
2021/04/06 08:17:50;;;;;;;6.22;1.88;;;2.70;92.10;;;;;;5113925;28;20135;-75
2021/04/06 08:20:21;;;;;;;6.35;1.98;;;2.80;91.60;;;;;;5113885;28;20461;-76
2021/04/06 08:22:55;;;;;;;7.55;2.25;;;2.90;91.80;;;;;;5114295;28;20126;-75
2021/04/06 08:25:49;;;;;;;7.75;2.40;;;2.80;91.80;;;;;;5114034;28;20043;-76
2021/04/06 08:28:39;;;;;;;8.23;2.40;;;2.90;91.70;;;;;;5113859;28;20134;-76
2021/04/06 08:31:35;;;;;;;7.07;2.33;;;2.90;91.60;;;;;;5113836;28;20050;-76
2021/04/06 08:34:53;;;;;;;6.50;2.13;;;3.00;92.10;;;;;;5113570;28;20130;-79
2021/04/06 08:37:34;;;;;;;6.22;1.88;;;3.00;91.70;;;;;;5111156;28;20052;-76
2021/04/06 08:40:01;;;;;;;5.18;1.80;;;3.20;91.50;;;;;;5113927;28;20481;-75
2021/04/06 08:42:29;;;;;;;6.53;2.08;;;3.10;91.30;;;;;;5113638;28;20078;-77
2021/04/06 08:44:58;;;;;;;6.63;2.10;;;3.10;91.10;;;;;;5113382;28;20059;-76
2021/04/06 08:47:46;;;;;;;5.75;1.83;;;3.10;90.90;;;;;;5113738;28;20138;-76
2021/04/06 08:50:30;;;;;;;4.90;1.98;;;3.10;91.10;;;;;;5113425;28;20052;-77
2021/04/06 08:52:58;;;;;;;10.23;2.33;;;3.20;91.00;;;;;;5113643;28;20074;-76
2021/04/06 08:55:26;;;;;;;9.00;2.30;;;3.30;90.60;;;;;;5113660;28;20443;-75
2021/04/06 08:57:58;;;;;;;5.47;2.30;;;3.20;90.90;;;;;;5113473;28;20055;-76
2021/04/06 09:00:26;;;;;;;7.35;2.30;;;3.30;90.80;;;;;;5113558;28;20469;-77
2021/04/06 09:03:03;;;;;;;9.40;2.20;;;3.30;90.50;;;;;;5113393;28;20138;-76
2021/04/06 09:05:31;;;;;;;6.00;2.10;;;3.50;90.50;;;;;;5113446;28;20493;-76
2021/04/06 09:07:58;;;;;;;5.72;1.90;;;3.50;91.10;;;;;;5113376;28;20086;-77
2021/04/06 09:10:37;;;;;;;8.82;2.50;;;3.50;90.50;;;;;;5113331;28;20175;-80
2021/04/06 09:13:03;;;;;;;8.55;2.53;;;3.60;90.40;;;;;;5113272;28;20433;-76
2021/04/06 09:15:30;;;;;;;8.70;2.17;;;3.60;90.60;;;;;;5113431;28;20131;-76
2021/04/06 09:18:01;;;;;;;7.03;2.20;;;3.60;90.90;;;;;;5113199;28;20094;-78
2021/04/06 09:20:29;;;;;;;9.38;2.40;;;3.70;90.40;;;;;;5113246;28;20131;-76
2021/04/06 09:22:57;;;;;;;5.38;1.95;;;3.70;90.10;;;;;;5113360;28;20079;-77
2021/04/06 09:25:28;;;;;;;7.25;2.17;;;3.70;90.70;;;;;;5113141;28;20511;-76
2021/04/06 09:27:58;;;;;;;6.25;2.08;;;3.80;90.50;;;;;;5113290;28;20060;-75
2021/04/06 09:30:33;;;;;;;8.23;1.90;;;3.70;90.90;;;;;;5113221;28;20541;-76
2021/04/06 09:33:00;;;;;;;5.25;1.90;;;3.80;90.40;;;;;;5113199;28;20142;-76
2021/04/06 09:35:28;;;;;;;6.65;2.35;;;3.70;90.30;;;;;;5112952;28;20079;-77
2021/04/06 09:37:55;;;;;;;8.00;2.72;;;3.60;91.00;;;;;;5113001;28;20129;-76
2021/04/06 09:40:31;;;;;;;6.65;2.03;;;3.50;91.40;;;;;;5112972;28;20040;-78
2021/04/06 09:42:59;;;;;;;7.75;2.35;;;3.40;92.60;;;;;;5113056;28;20134;-77
2021/04/06 09:45:27;;;;;;;8.48;2.70;;;3.30;93.50;;;;;;5113110;28;20071;-77
2021/04/06 09:47:53;;;;;;;6.43;2.50;;;3.10;94.90;;;;;;5116874;28;20043;-77
2021/04/06 09:50:22;;;;;;;8.30;2.75;;;2.90;95.70;;;;;;5116865;28;20071;-77
2021/04/06 09:52:49;;;;;;;7.28;2.60;;;3.00;96.60;;;;;;5116712;28;20374;-76
2021/04/06 09:55:16;;;;;;;9.93;2.60;;;3.10;96.80;;;;;;5115730;28;20086;-77
2021/04/06 09:57:47;;;;;;;7.03;2.30;;;3.30;96.30;;;;;;5116462;28;20151;-77
2021/04/06 10:00:17;;;;;;;6.50;2.90;;;3.30;95.70;;;;;;5116488;28;20101;-76
2021/04/06 10:03:01;;;;;;;7.57;2.63;;;3.30;95.80;;;;;;5116513;28;20430;-78
2021/04/06 10:05:28;;;;;;;7.15;2.35;;;3.50;95.50;;;;;;5116290;28;20514;-76
2021/04/06 10:07:54;;;;;;;8.85;2.50;;;3.50;96.30;;;;;;5116493;28;20090;-76
2021/04/06 10:10:23;;;;;;;7.43;2.65;;;3.60;95.70;;;;;;5116376;28;20082;-75
2021/04/06 10:12:51;;;;;;;6.10;2.30;;;3.70;95.20;;;;;;5116411;28;20128;-75
2021/04/06 10:15:19;;;;;;;8.35;2.40;;;3.80;95.20;;;;;;5113350;28;20126;-77
2021/04/06 10:17:46;;;;;;;6.47;2.47;;;3.80;94.50;;;;;;5100106;28;20609;-75
2021/04/06 10:20:16;;;;;;;7.57;2.70;;;3.80;95.30;;;;;;5107416;28;20086;-76
2021/04/06 10:22:45;;;;;;;6.38;2.38;;;3.80;94.80;;;;;;5092839;28;20135;-76
2021/04/06 10:25:15;;;;;;;7.85;2.40;;;3.90;95.20;;;;;;5102191;28;20146;-76
2021/04/06 10:27:44;;;;;;;5.90;2.30;;;4.10;94.40;;;;;;5112581;28;20090;-76
2021/04/06 10:30:15;;;;;;;7.00;2.50;;;4.10;94.20;;;;;;5100591;28;20129;-76
2021/04/06 10:32:44;;;;;;;6.25;2.17;;;4.20;93.40;;;;;;5092711;28;20481;-75
2021/04/06 10:35:15;;;;;;;7.35;2.60;;;4.30;92.60;;;;;;5107459;28;20086;-76
2021/04/06 10:37:47;;;;;;;9.10;3.05;;;4.30;93.40;;;;;;5113533;28;20560;-75
2021/04/06 10:40:40;;;;;;;5.45;2.20;;;4.30;93.00;;;;;;5112888;28;20087;-76
2021/04/06 10:43:11;;;;;;;6.80;2.30;;;4.30;92.40;;;;;;5112945;28;20086;-75
2021/04/06 10:45:45;;;;;;;8.07;2.20;;;4.20;92.50;;;;;;5112701;28;20054;-75
2021/04/06 10:48:15;;;;;;;7.78;2.45;;;4.00;92.80;;;;;;5112822;28;20135;-76
2021/04/06 10:50:45;;;;;;;6.28;2.10;;;4.10;93.00;;;;;;5111318;28;20134;-76
2021/04/06 10:53:23;;;;;;;5.30;2.28;;;4.10;93.50;;;;;;5113046;28;20206;-76
2021/04/06 10:56:06;;;;;;;7.93;2.03;;;4.20;93.50;;;;;;5091892;28;20123;-78
2021/04/06 10:58:37;;;;;;;6.40;2.00;;;4.30;94.10;;;;;;5103353;28;20047;-75
2021/04/06 11:01:08;;;;;;;4.57;2.03;;;4.50;93.50;;;;;;5111447;28;20055;-75
2021/04/06 11:03:42;;;;;;;6.47;2.00;;;4.70;92.10;;;;;;5104152;28;20044;-75
2021/04/06 11:06:13;;;;;;;6.28;2.10;;;4.80;91.40;;;;;;5090136;28;20052;-76
2021/04/06 11:08:43;;;;;;;4.72;1.88;;;4.90;91.80;;;;;;5101773;28;20551;-76
2021/04/06 11:11:25;;;;;;;6.85;2.05;;;4.90;91.40;;;;;;5110667;28;20079;-76
2021/04/06 11:13:54;;;;;;;10.13;2.30;;;5.00;91.90;;;;;;5111450;28;20105;-76
2021/04/06 11:16:22;;;;;;;5.07;2.03;;;5.00;91.50;;;;;;5111401;28;20094;-75
2021/04/06 11:19:03;;;;;;;7.10;2.30;;;4.90;90.90;;;;;;5111286;28;20578;-76
2021/04/06 11:21:30;;;;;;;5.05;2.00;;;4.80;92.40;;;;;;5110819;28;20130;-75
2021/04/06 11:23:56;;;;;;;7.97;2.40;;;4.70;92.50;;;;;;5108818;28;20560;-75
2021/04/06 11:26:23;;;;;;;5.00;1.70;;;4.80;92.00;;;;;;5110950;28;20067;-75
2021/04/06 11:28:50;;;;;;;5.20;1.90;;;4.70;92.40;;;;;;5110969;28;20136;-77
2021/04/06 11:31:17;;;;;;;4.72;1.67;;;4.70;93.70;;;;;;5111004;28;20130;-75
2021/04/06 11:33:45;;;;;;;4.82;1.73;;;4.80;94.00;;;;;;5110552;28;20128;-77
2021/04/06 11:36:13;;;;;;;4.50;1.60;;;5.00;93.20;;;;;;5109465;28;20085;-76
2021/04/06 11:38:39;;;;;;;5.05;1.90;;;5.10;94.00;;;;;;5108847;28;20083;-77
2021/04/06 11:41:06;;;;;;;4.95;1.50;;;5.20;92.80;;;;;;5110178;28;20047;-75
2021/04/06 11:43:33;;;;;;;2.97;1.27;;;5.20;92.40;;;;;;5110383;28;20078;-76
2021/04/06 11:46:00;;;;;;;3.90;1.40;;;5.30;92.50;;;;;;5110431;28;20090;-77
2021/04/06 11:48:27;;;;;;;4.88;1.48;;;5.50;92.60;;;;;;5111188;28;20055;-76
2021/04/06 11:50:55;;;;;;;5.05;1.73;;;5.70;92.70;;;;;;5098061;28;20126;-75
2021/04/06 11:53:22;;;;;;;5.05;1.63;;;6.00;91.70;;;;;;5104627;28;20071;-76
2021/04/06 11:55:48;;;;;;;4.75;1.60;;;6.30;91.30;;;;;;5110424;28;20469;-76
2021/04/06 11:58:15;;;;;;;4.35;1.50;;;6.30;90.00;;;;;;5109572;28;20117;-77
2021/04/06 12:00:42;;;;;;;4.70;1.50;;;6.60;90.00;;;;;;5109807;28;20147;-76
2021/04/06 12:03:08;;;;;;;5.15;1.40;;;6.60;87.00;;;;;;5109979;28;20128;-76
2021/04/06 12:05:35;;;;;;;4.50;1.30;;;6.90;82.30;;;;;;5099721;28;20634;-76
2021/04/06 12:08:03;;;;;;;6.15;1.95;;;6.90;79.00;;;;;;5089855;28;20127;-77
2021/04/06 12:10:32;;;;;;;5.60;1.80;;;6.80;80.70;;;;;;5089183;28;20084;-75
2021/04/06 12:13:00;;;;;;;5.32;1.70;;;6.70;78.40;;;;;;5089713;28;20048;-76
2021/04/06 12:15:26;;;;;;;5.00;1.70;;;6.50;76.00;;;;;;5089622;28;20079;-76
2021/04/06 12:17:53;;;;;;;15.23;5.47;;;6.40;78.50;;;;;;5090135;28;20486;-76
2021/04/06 12:20:20;;;;;;;12.43;4.55;;;6.30;70.50;;;;;;5098691;28;20075;-76
2021/04/06 12:22:46;;;;;;;4.45;1.70;;;6.20;67.80;;;;;;5110088;28;20077;-75
2021/04/06 12:25:15;;;;;;;5.05;1.40;;;6.20;70.50;;;;;;5110342;28;20462;-76
2021/04/06 12:27:42;;;;;;;6.28;1.40;;;6.20;70.50;;;;;;5109987;28;20071;-75
2021/04/06 12:30:09;;;;;;;7.00;1.38;;;6.20;67.70;;;;;;5109428;28;20048;-75
2021/04/06 12:32:36;;;;;;;5.10;1.40;;;6.30;70.90;;;;;;5109637;28;20134;-75
2021/04/06 12:35:03;;;;;;;5.45;1.63;;;6.30;68.50;;;;;;5099781;28;20075;-76
2021/04/06 12:37:32;;;;;;;5.55;1.55;;;6.50;65.30;;;;;;5098667;28;20130;-76
2021/04/06 12:40:00;;;;;;;5.43;1.65;;;6.40;66.90;;;;;;5110388;28;20401;-77
2021/04/06 12:42:28;;;;;;;4.65;1.50;;;6.20;66.80;;;;;;5109899;28;20488;-76
2021/04/06 12:44:54;;;;;;;4.22;1.30;;;6.30;68.60;;;;;;5111660;28;20097;-76
2021/04/06 12:47:22;;;;;;;4.43;1.38;;;6.50;70.40;;;;;;5109794;28;20507;-75
2021/04/06 12:49:48;;;;;;;5.95;1.75;;;6.50;62.90;;;;;;5100686;28;20119;-77
2021/04/06 12:52:17;;;;;;;4.57;1.35;;;6.60;63.90;;;;;;5089359;28;20897;-76
2021/04/06 12:54:43;;;;;;;7.22;1.60;;;6.50;60.80;;;;;;5088183;28;20054;-77
2021/04/06 12:57:10;;;;;;;5.05;1.40;;;6.30;61.80;;;;;;5088605;28;20131;-77
2021/04/06 12:59:38;;;;;;;7.05;1.15;;;6.30;63.60;;;;;;5088677;28;20424;-77
2021/04/06 13:02:05;;;;;;;4.15;1.30;;;6.50;67.30;;;;;;5088993;28;20135;-76
2021/04/06 13:04:31;;;;;;;4.70;1.52;;;6.70;63.60;;;;;;5089667;28;20083;-76
2021/04/06 13:06:58;;;;;;;5.05;1.40;;;6.90;61.40;;;;;;5093615;28;20577;-76
2021/04/06 13:09:25;;;;;;;5.03;1.40;;;6.90;60.30;;;;;;5088578;28;20127;-77
2021/04/06 13:11:51;;;;;;;3.80;1.00;;;7.10;62.70;;;;;;5088503;28;20091;-78
2021/04/06 13:14:18;;;;;;;4.35;1.27;;;7.20;57.50;;;;;;5088986;28;20075;-76
2021/04/06 13:16:46;;;;;;;6.25;2.75;;;7.50;56.70;;;;;;5088714;28;20571;-76